Agate, Colorado
Current Conditions -  °F | °C
As of 8:55 AM on Tuesday 21 Oct 2014 (Local Time) from KLIC Reporting Station
Clear Clear  
Wind Chill: 46°   Ceiling: Unl
Heat Index: 46°   Visibility: 10mi
Dew Point: 46°   Wind: 3mph
Humidity: 100%   Direction: 150°SSE
Pressure: 30.09"   Gusts: NA
Location:  39.46°N, 103.94°W
Report Text: KLIC 211455Z AUTO 15003KT 10SM CLR 08/08 A3009 RMK AO2 SLP165 I3000 T00780078 53006
Loading
Personal Weather Stations






























Interactive Weather Map
Tropical Storm Tracking
New forecast layout! Learn more

10-Day Weather Forecast

Advertisements
Track Severe Weather on mobile